Time;durP1;ratioP1;P1;durP2;ratioP2;P2;SDS_P1;SDS_P2;PMS_P1;PMS_P2;Temp;Humidity;BMP_temperature;BMP_pressure;BME280_temperature;BME280_humidity;BME280_pressure;Samples;Min_cycle;Max_cycle;Signal;HPM_P1;HPM_P2
2021/04/15 00:00:32;;;;;;;2.72;2.63;;;;;;;-1.06;100.00;101682.63;5090918;28;20063;-76
2021/04/15 00:03:35;;;;;;;1.52;1.50;;;;;;;-1.09;100.00;101694.25;5090412;28;20067;-77
2021/04/15 00:06:39;;;;;;;2.10;2.00;;;;;;;-1.09;100.00;101694.25;5090787;28;20063;-76
2021/04/15 00:09:43;;;;;;;7.63;1.98;;;;;;;-1.12;100.00;101697.69;5091000;28;20063;-76
2021/04/15 00:12:46;;;;;;;1.63;1.60;;;;;;;-1.16;100.00;101694.06;5090827;28;20059;-76
2021/04/15 00:15:50;;;;;;;1.60;1.60;;;;;;;-1.16;100.00;101694.06;5090794;28;20521;-76
2021/04/15 00:18:54;;;;;;;1.40;1.40;;;;;;;-1.20;100.00;101706.84;5090411;28;20111;-76
2021/04/15 00:21:57;;;;;;;1.88;1.80;;;;;;;-1.25;100.00;101701.63;5090724;28;20051;-76
2021/04/15 00:25:00;;;;;;;1.40;1.40;;;;;;;-1.31;100.00;101692.13;5090381;28;20063;-76
2021/04/15 00:28:05;;;;;;;2.10;2.05;;;;;;;-1.36;100.00;101692.38;5090469;28;20066;-76
2021/04/15 00:34:44;;;;;;;2.15;2.13;;;;;;;-1.42;100.00;101701.97;5049823;28;20055;-76
2021/04/15 00:37:48;;;;;;;2.58;2.42;;;;;;;-1.47;100.00;101707.69;5050131;28;20076;-76
2021/04/15 00:40:54;;;;;;;2.20;2.10;;;;;;;-1.53;100.00;101696.22;5050304;28;20063;-76
2021/04/15 00:43:57;;;;;;;3.38;2.00;;;;;;;-1.59;100.00;101692.94;5049998;28;20139;-76
2021/04/15 00:47:05;;;;;;;1.77;1.77;;;;;;;-1.66;100.00;101695.47;5050224;28;20059;-76
2021/04/15 00:50:19;;;;;;;3.30;2.05;;;;;;;-1.70;100.00;101691.88;5049873;28;20529;-76
2021/04/15 00:53:46;;;;;;;2.20;2.17;;;;;;;-1.76;100.00;101698.72;5049080;28;20060;-77
2021/04/15 00:56:50;;;;;;;2.38;2.28;;;;;;;-1.79;100.00;101693.13;5049696;28;20410;-76
2021/04/15 00:59:55;;;;;;;2.03;1.73;;;;;;;-1.82;100.00;101700.09;5068692;28;20060;-76
2021/04/15 01:03:01;;;;;;;3.22;2.28;;;;;;;-1.87;100.00;101689.44;5069687;28;20055;-76
2021/04/15 01:06:06;;;;;;;3.22;2.88;;;;;;;-1.91;100.00;101694.00;5070109;28;20056;-76
2021/04/15 01:09:10;;;;;;;1.65;1.65;;;;;;;-1.95;100.00;101687.63;5069874;28;20064;-77
2021/04/15 01:12:27;;;;;;;1.45;1.45;;;;;;;-1.98;100.00;101690.25;5069965;28;20055;-77
2021/04/15 01:15:35;;;;;;;2.08;2.05;;;;;;;-2.04;100.00;101687.00;5067999;28;20063;-77
2021/04/15 01:18:41;;;;;;;5.32;2.08;;;;;;;-2.07;100.00;101679.47;5068629;28;20067;-76
2021/04/15 01:21:45;;;;;;;3.97;2.17;;;;;;;-2.11;100.00;101686.78;5069630;28;20063;-77
2021/04/15 01:24:58;;;;;;;1.80;1.73;;;;;;;-2.15;100.00;101687.81;5069493;28;20083;-75
2021/04/15 01:28:06;;;;;;;1.75;1.75;;;;;;;-2.19;100.00;101693.16;5069237;28;20064;-76
2021/04/15 01:31:32;;;;;;;3.63;1.90;;;;;;;-2.24;100.00;101690.66;5069449;28;20068;-76
2021/04/15 01:34:50;;;;;;;3.13;2.78;;;;;;;-2.27;100.00;101688.63;5069017;28;20052;-76
2021/04/15 01:38:04;;;;;;;1.20;1.20;;;;;;;-2.30;100.00;101689.31;5069666;28;20437;-76
2021/04/15 01:41:19;;;;;;;1.67;1.58;;;;;;;-2.31;100.00;101698.63;5069722;28;20055;-76
2021/04/15 01:44:54;;;;;;;3.00;2.22;;;;;;;-2.33;100.00;101690.00;5069061;28;20059;-76
2021/04/15 01:48:03;;;;;;;1.42;1.42;;;;;;;-2.37;100.00;101691.81;5065799;28;20067;-77
2021/04/15 01:51:29;;;;;;;1.63;1.63;;;;;;;-2.42;100.00;101681.94;5069682;28;20063;-76
2021/04/15 01:54:41;;;;;;;1.77;1.77;;;;;;;-2.42;100.00;101692.06;5067959;28;20532;-77
2021/04/15 01:58:23;;;;;;;11.33;2.37;;;;;;;-2.46;100.00;101683.78;5069515;28;20056;-77
2021/04/15 02:01:31;;;;;;;3.22;2.65;;;;;;;-2.49;100.00;101683.66;5068505;28;20053;-77
2021/04/15 02:04:40;;;;;;;1.85;1.85;;;;;;;-2.52;100.00;101687.06;5069308;28;20417;-77
2021/04/15 02:07:49;;;;;;;1.77;1.77;;;;;;;-2.56;100.00;101683.44;5069126;28;20095;-77
2021/04/15 02:10:59;;;;;;;2.13;2.03;;;;;;;-2.58;100.00;101683.00;5069430;28;20076;-77
2021/04/15 02:14:03;;;;;;;1.90;1.90;;;;;;;-2.63;100.00;101683.22;5071141;28;20056;-77
2021/04/15 02:17:08;;;;;;;1.83;1.73;;;;;;;-2.66;100.00;101683.88;5072742;28;20067;-77
2021/04/15 02:20:15;;;;;;;2.28;2.17;;;;;;;-2.71;100.00;101687.66;5072577;28;20114;-78
2021/04/15 02:23:28;;;;;;;1.98;1.98;;;;;;;-2.70;100.00;101682.97;5071959;28;20059;-77
2021/04/15 02:26:39;;;;;;;2.00;2.00;;;;;;;-2.71;100.00;101689.59;5072621;28;20067;-77
2021/04/15 02:29:49;;;;;;;2.47;2.47;;;;;;;-2.74;100.00;101684.81;5071182;28;20059;-77
2021/04/15 02:32:59;;;;;;;2.03;2.03;;;;;;;-2.75;100.00;101681.28;5084523;28;20527;-77
2021/04/15 02:36:05;;;;;;;17.83;2.97;;;;;;;-2.74;100.00;101671.97;5113117;28;20650;-78
2021/04/15 02:39:12;;;;;;;2.50;2.40;;;;;;;-2.73;100.00;101680.97;5112916;28;20063;-78
2021/04/15 02:42:25;;;;;;;1.73;1.73;;;;;;;-2.77;100.00;101690.97;5112251;28;20555;-77
2021/04/15 02:45:35;;;;;;;;;;;;;;;-2.82;100.00;101683.00;5113287;28;20059;-77
2021/04/15 02:48:40;;;;;;;2.60;2.45;;;;;;;-2.88;100.00;101690.59;5112693;28;20361;-77
2021/04/15 02:51:46;;;;;;;2.30;2.20;;;;;;;-2.91;100.00;101690.47;5112564;28;20078;-77
2021/04/15 02:54:55;;;;;;;1.85;1.85;;;;;;;-2.95;100.00;101695.84;5112656;28;20062;-77
2021/04/15 02:58:07;;;;;;;1.33;1.33;;;;;;;-2.98;100.00;101691.03;5112508;28;20065;-77
2021/04/15 03:01:23;;;;;;;1.95;1.95;;;;;;;-3.01;100.00;101697.16;5112690;28;20063;-77
2021/04/15 03:04:27;;;;;;;1.88;1.83;;;;;;;-3.03;100.00;101683.09;5112029;28;20074;-77
2021/04/15 03:07:33;;;;;;;1.00;1.00;;;;;;;-3.08;100.00;101689.56;5112265;28;20520;-77
2021/04/15 03:10:44;;;;;;;2.10;2.00;;;;;;;-3.06;100.00;101697.41;5112099;28;20055;-78
2021/04/15 03:13:53;;;;;;;13.05;3.05;;;;;;;-3.09;100.00;101700.78;5111867;28;20055;-77
2021/04/15 03:17:03;;;;;;;1.88;1.88;;;;;;;-3.09;100.00;101689.91;5111894;28;20079;-77
2021/04/15 03:20:37;;;;;;;2.10;2.00;;;;;;;-3.11;100.00;101695.69;5111981;28;20075;-77
2021/04/15 03:23:51;;;;;;;2.30;2.20;;;;;;;-3.14;100.00;101696.34;5111362;28;20059;-77
2021/04/15 03:27:03;;;;;;;1.42;1.40;;;;;;;-3.17;100.00;101688.88;5112087;28;20062;-77
2021/04/15 03:30:10;;;;;;;1.85;1.85;;;;;;;-3.20;100.00;101694.19;5111918;28;20067;-77
2021/04/15 03:33:35;;;;;;;4.70;2.13;;;;;;;-3.27;100.00;101700.19;5111334;28;20075;-79
2021/04/15 03:36:42;;;;;;;2.75;2.65;;;;;;;-3.30;100.00;101694.63;5111393;28;20070;-77
2021/04/15 03:39:46;;;;;;;1.83;1.83;;;;;;;-3.33;100.00;101707.00;5111373;28;20066;-79
2021/04/15 03:43:12;;;;;;;2.65;2.55;;;;;;;-3.36;100.00;101702.25;5111144;28;20071;-78
2021/04/15 03:46:28;;;;;;;1.95;1.90;;;;;;;-3.39;100.00;101702.91;5111867;28;20405;-78
2021/04/15 03:49:36;;;;;;;2.33;2.30;;;;;;;-3.41;100.00;101707.09;5110915;28;20067;-77
2021/04/15 03:52:55;;;;;;;1.98;1.95;;;;;;;-3.44;100.00;101714.00;5111630;28;20056;-78
2021/04/15 03:56:06;;;;;;;2.70;2.45;;;;;;;-3.47;100.00;101717.41;5111263;28;20515;-77
2021/04/15 03:59:13;;;;;;;1.75;1.75;;;;;;;-3.49;100.00;101714.22;5111460;28;20062;-77
2021/04/15 04:02:23;;;;;;;1.80;1.80;;;;;;;-3.54;100.00;101711.69;5111502;28;20054;-77
2021/04/15 04:05:34;;;;;;;1.83;1.83;;;;;;;-3.53;100.00;101712.50;5110389;28;20062;-77
2021/04/15 04:09:17;;;;;;;1.30;1.30;;;;;;;-3.54;100.00;101710.91;5111187;28;20059;-77
2021/04/15 04:12:29;;;;;;;1.80;1.80;;;;;;;-3.58;100.00;101716.22;5110693;28;20063;-77
2021/04/15 04:15:38;;;;;;;1.17;1.17;;;;;;;-3.63;100.00;101710.97;5111158;28;20063;-77
2021/04/15 04:19:02;;;;;;;2.25;2.15;;;;;;;-3.66;100.00;101714.38;5111036;28;20067;-77
2021/04/15 04:22:30;;;;;;;2.15;2.05;;;;;;;-3.70;100.00;101713.44;5110694;28;20081;-77
2021/04/15 04:25:39;;;;;;;1.60;1.60;;;;;;;-3.68;100.00;101716.63;5110053;28;20114;-77
2021/04/15 04:29:17;;;;;;;19.40;2.65;;;;;;;-3.71;100.00;101708.34;5097890;28;20078;-78
2021/04/15 04:32:23;;;;;;;1.30;1.30;;;;;;;-3.73;100.00;101702.44;5109505;28;20059;-77
2021/04/15 04:35:31;;;;;;;1.77;1.77;;;;;;;-3.73;100.00;101707.88;5110730;28;20059;-77
2021/04/15 04:38:34;;;;;;;2.15;2.05;;;;;;;-3.80;100.00;101702.97;5110154;28;20433;-77
2021/04/15 04:42:05;;;;;;;2.97;2.67;;;;;;;-3.80;100.00;101711.13;5097844;28;20421;-77
2021/04/15 04:45:09;;;;;;;1.73;1.73;;;;;;;-3.86;100.00;101709.75;5109326;28;20416;-77
2021/04/15 04:48:22;;;;;;;1.98;1.98;;;;;;;-3.90;100.00;101719.72;5109565;28;20496;-78
2021/04/15 04:51:44;;;;;;;1.95;1.92;;;;;;;-3.92;100.00;101711.09;5109033;28;20059;-77
2021/04/15 04:54:48;;;;;;;2.30;2.30;;;;;;;-3.93;100.00;101714.94;5110537;28;20074;-77
2021/04/15 04:57:51;;;;;;;1.67;1.67;;;;;;;-3.94;100.00;101716.84;5110402;28;20058;-77
2021/04/15 05:00:57;;;;;;;2.45;2.25;;;;;;;-3.97;100.00;101714.00;5110456;28;20059;-77
2021/04/15 05:04:03;;;;;;;2.53;2.42;;;;;;;-3.97;100.00;101716.72;5110501;28;20063;-77
2021/04/15 05:07:12;;;;;;;2.88;2.75;;;;;;;-3.96;100.00;101724.56;5110370;28;20113;-76
2021/04/15 05:10:21;;;;;;;2.58;2.47;;;;;;;-3.95;100.00;101722.63;5109926;28;20066;-77
2021/04/15 05:13:26;;;;;;;3.92;3.70;;;;;;;-3.99;100.00;101716.28;5109055;28;20063;-78
2021/04/15 05:16:47;;;;;;;2.92;2.72;;;;;;;-3.97;100.00;101719.44;5109621;28;20066;-77
2021/04/15 05:19:52;;;;;;;2.83;2.67;;;;;;;-3.97;100.00;101724.88;5109672;28;20066;-79
2021/04/15 05:23:24;;;;;;;1.45;1.45;;;;;;;-4.00;100.00;101720.09;5096913;28;20062;-78
2021/04/15 05:26:33;;;;;;;8.18;2.30;;;;;;;-4.04;100.00;101724.63;5108767;28;20063;-77
2021/04/15 05:29:42;;;;;;;10.90;2.90;;;;;;;-4.05;100.00;101729.25;5109402;28;20516;-78
2021/04/15 05:32:49;;;;;;;4.80;3.67;;;;;;;-4.04;100.00;101730.06;5109049;28;20059;-77
2021/04/15 05:36:02;;;;;;;2.05;2.05;;;;;;;-4.02;100.00;101727.81;5109690;28;20055;-77
2021/04/15 05:39:11;;;;;;;9.07;3.10;;;;;;;-4.02;100.00;101730.53;5109910;28;20519;-77
2021/04/15 05:42:38;;;;;;;2.05;1.95;;;;;;;-4.00;100.00;101733.69;5109538;28;20066;-77
2021/04/15 05:45:44;;;;;;;3.30;2.85;;;;;;;-3.95;100.00;101736.25;5109529;28;20063;-76
2021/04/15 05:48:53;;;;;;;2.58;2.42;;;;;;;-3.91;100.00;101739.88;5111123;28;20125;-76
2021/04/15 05:52:21;;;;;;;32.08;11.52;;;;;;;-3.86;100.00;101736.97;5113313;28;20066;-75
2021/04/15 05:55:33;;;;;;;4.22;3.85;;;;;;;-3.81;100.00;101742.19;5113355;28;20051;-75
2021/04/15 05:58:43;;;;;;;4.47;3.30;;;;;;;-3.76;100.00;101749.38;5113725;28;20054;-76
2021/04/15 06:02:05;;;;;;;1.80;1.75;;;;;;;-3.75;100.00;101749.06;5113662;28;20113;-76
2021/04/15 06:05:18;;;;;;;2.38;2.38;;;;;;;-3.71;100.00;101744.53;5113004;28;20059;-76
2021/04/15 06:08:22;;;;;;;1.50;1.50;;;;;;;-3.69;100.00;101753.16;5109537;28;20063;-76
2021/04/15 06:11:41;;;;;;;1.58;1.52;;;;;;;-3.64;100.00;101754.88;5111107;28;20055;-76
2021/04/15 06:14:54;;;;;;;5.32;2.05;;;;;;;-3.60;100.00;101751.16;5110322;28;20065;-76
2021/04/15 06:18:16;;;;;;;2.15;2.15;;;;;;;-3.56;100.00;101752.09;5111972;28;20054;-76
2021/04/15 06:21:25;;;;;;;3.15;2.92;;;;;;;-3.49;100.00;101749.63;5111839;28;20058;-77
2021/04/15 06:24:29;;;;;;;2.67;2.55;;;;;;;-3.44;100.00;101749.41;5110703;28;20409;-76
2021/04/15 06:27:34;;;;;;;6.65;3.05;;;;;;;-3.36;100.00;101753.97;5111117;28;20070;-76
2021/04/15 06:30:56;;;;;;;2.00;2.00;;;;;;;-3.27;100.00;101760.13;5113194;28;20074;-77
2021/04/15 06:34:02;;;;;;;18.67;3.08;;;;;;;-3.20;100.00;101748.66;5112657;28;20059;-76
2021/04/15 06:37:18;;;;;;;3.30;2.65;;;;;;;-3.10;100.00;101746.31;5112912;28;20056;-76
2021/04/15 06:40:59;;;;;;;2.03;1.92;;;;;;;-2.99;100.00;101751.34;5112375;28;20559;-76
2021/04/15 06:44:31;;;;;;;4.45;2.97;;;;;;;-2.87;100.00;101748.63;5099141;28;20051;-76
2021/04/15 06:48:11;;;;;;;2.00;2.00;;;;;;;-2.71;100.00;101742.19;5098933;28;20059;-76
2021/04/15 06:51:33;;;;;;;8.30;2.15;;;;;;;-2.56;100.00;101751.63;5112183;28;20082;-77
2021/04/15 06:55:03;;;;;;;3.60;2.10;;;;;;;-2.45;100.00;101750.81;5110556;28;20086;-76
2021/04/15 06:58:25;;;;;;;6.38;2.75;;;;;;;-2.34;100.00;101748.44;5111475;28;20058;-77
2021/04/15 07:01:40;;;;;;;2.03;2.00;;;;;;;-2.09;100.00;101757.38;5091104;28;20059;-77
2021/04/15 07:04:49;;;;;;;10.38;2.95;;;;;;;-1.81;100.00;101764.50;5091277;28;20504;-76
2021/04/15 07:08:06;;;;;;;8.57;3.10;;;;;;;-1.72;100.00;101765.16;5091772;28;20095;-75
2021/04/15 07:11:21;;;;;;;3.45;2.97;;;;;;;-1.62;100.00;101767.38;5091868;28;20413;-76
2021/04/15 07:14:30;;;;;;;3.50;2.70;;;;;;;-1.52;100.00;101758.69;5091311;28;20083;-76
2021/04/15 07:18:02;;;;;;;4.53;2.58;;;;;;;-1.38;100.00;101760.22;5091543;28;20102;-76
2021/04/15 07:21:30;;;;;;;2.22;1.92;;;;;;;-1.22;100.00;101759.16;5091709;28;20071;-75
2021/04/15 07:25:01;;;;;;;7.10;3.08;;;;;;;-1.08;100.00;101755.97;5091023;28;20074;-76
2021/04/15 07:28:22;;;;;;;2.05;2.00;;;;;;;-0.94;100.00;101756.38;5091479;28;20075;-76
2021/04/15 07:31:51;;;;;;;2.33;2.22;;;;;;;-0.78;100.00;101754.44;5088593;28;20067;-77
2021/04/15 07:35:33;;;;;;;14.18;3.38;;;;;;;-0.51;100.00;101753.53;5091621;28;20048;-76
2021/04/15 07:38:57;;;;;;;2.67;2.40;;;;;;;-0.27;100.00;101761.56;5090835;28;20059;-77
2021/04/15 07:42:23;;;;;;;1.88;1.88;;;;;;;-0.06;100.00;101748.34;5091375;28;20149;-77
2021/04/15 07:45:33;;;;;;;1.77;1.77;;;;;;;0.06;100.00;101752.13;5077808;28;20079;-76
2021/04/15 07:48:55;;;;;;;5.47;2.40;;;;;;;0.37;100.00;101760.22;5091202;28;20086;-76
2021/04/15 07:52:17;;;;;;;;;;;;;;;0.57;100.00;101759.06;5091087;28;20079;-78
2021/04/15 07:55:38;;;;;;;2.70;2.28;;;;;;;0.76;100.00;101756.28;5068488;28;19920;-77
2021/04/15 07:59:23;;;;;;;3.40;1.98;;;;;;;1.01;100.00;101754.81;5099818;28;20059;-77
2021/04/15 08:02:41;;;;;;;5.45;2.50;;;;;;;1.29;100.00;101752.59;5110494;28;20058;-77
2021/04/15 08:05:53;;;;;;;1.40;1.40;;;;;;;1.35;100.00;101751.13;5111140;28;20062;-77
2021/04/15 08:09:11;;;;;;;1.50;1.50;;;;;;;1.46;100.00;101741.09;5110850;28;20519;-76
2021/04/15 08:12:56;;;;;;;1.50;1.50;;;;;;;1.63;100.00;101749.97;5109972;28;20063;-76
2021/04/15 08:16:26;;;;;;;1.30;1.30;;;;;;;1.86;100.00;101753.50;5080622;28;20058;-76
2021/04/15 08:19:38;;;;;;;1.83;1.75;;;;;;;2.16;100.00;101746.06;5110353;28;20058;-75
2021/04/15 08:23:10;;;;;;;1.10;1.10;;;;;;;2.32;100.00;101749.41;5110869;28;20055;-75
2021/04/15 08:27:06;;;;;;;1.07;1.07;;;;;;;2.52;100.00;101741.78;5110388;28;20063;-76
2021/04/15 08:30:24;;;;;;;1.23;1.13;;;;;;;2.69;100.00;101747.50;5089064;28;20291;-78
2021/04/15 08:34:03;;;;;;;0.80;0.80;;;;;;;2.82;100.00;101743.31;5109541;28;20059;-77
2021/04/15 08:37:22;;;;;;;1.42;1.42;;;;;;;3.08;100.00;101742.41;5110491;28;20062;-77
2021/04/15 08:40:47;;;;;;;1.10;1.10;;;;;;;3.30;100.00;101744.19;5109377;28;20062;-78
2021/04/15 08:44:10;;;;;;;1.23;1.23;;;;;;;3.48;100.00;101733.31;5110449;28;20067;-78
2021/04/15 08:47:37;;;;;;;0.68;0.68;;;;;;;3.70;100.00;101735.84;5110274;28;20520;-76
2021/04/15 08:51:07;;;;;;;0.95;0.95;;;;;;;4.17;100.00;101723.94;5109882;28;20058;-77
2021/04/15 08:54:25;;;;;;;1.15;1.15;;;;;;;4.43;100.00;101734.69;5110345;28;20063;-78
2021/04/15 08:57:43;;;;;;;0.85;0.85;;;;;;;4.70;100.00;101720.59;5109674;28;20069;-76
2021/04/15 09:01:00;;;;;;;1.20;1.20;;;;;;;4.85;100.00;101730.50;5090112;28;20083;-76
2021/04/15 09:04:08;;;;;;;0.90;0.90;;;;;;;5.00;100.00;101723.81;5090124;28;20055;-77
2021/04/15 09:07:18;;;;;;;1.10;1.10;;;;;;;5.10;100.00;101734.09;5089739;28;20070;-77
2021/04/15 09:10:40;;;;;;;1.02;0.95;;;;;;;5.28;100.00;101726.63;5089272;28;20074;-77
2021/04/15 09:14:09;;;;;;;0.82;0.82;;;;;;;5.59;100.00;101728.56;5089843;28;20544;-77
2021/04/15 09:17:22;;;;;;;1.00;1.00;;;;;;;5.67;100.00;101724.63;5088076;28;20055;-77
2021/04/15 09:20:34;;;;;;;1.50;1.33;;;;;;;6.00;100.00;101729.72;5087445;28;20063;-77
2021/04/15 09:23:52;;;;;;;;;;;;;;;6.25;100.00;101731.63;5092844;28;20058;-78
2021/04/15 09:27:15;;;;;;;0.52;0.52;;;;;;;6.50;100.00;101732.31;5092162;28;19924;-77
2021/04/15 09:30:32;;;;;;;1.00;1.00;;;;;;;6.67;100.00;101731.47;5092899;28;20070;-77
2021/04/15 09:33:54;;;;;;;3.85;1.15;;;;;;;6.80;100.00;101724.25;5093696;28;20055;-77
2021/04/15 09:37:19;;;;;;;0.50;0.50;;;;;;;7.01;100.00;101726.13;5093714;28;20451;-77
2021/04/15 09:40:43;;;;;;;10.45;1.08;;;;;;;7.10;100.00;101727.25;5092421;28;20067;-77
2021/04/15 09:43:59;;;;;;;0.90;0.90;;;;;;;7.20;100.00;101726.38;5093024;28;20063;-77
2021/04/15 09:47:40;;;;;;;1.77;1.20;;;;;;;7.24;100.00;101726.34;5093236;28;20397;-76
2021/04/15 09:51:09;;;;;;;4.07;0.57;;;;;;;7.43;100.00;101729.38;5092839;28;20063;-77
2021/04/15 09:54:36;;;;;;;1.63;0.68;;;;;;;7.59;100.00;101726.88;5093224;28;20083;-77
2021/04/15 09:57:49;;;;;;;0.63;0.63;;;;;;;7.81;100.00;101721.09;5092879;28;20413;-76
2021/04/15 10:00:58;;;;;;;1.77;1.00;;;;;;;7.73;100.00;101730.72;5112495;27;20055;-75
2021/04/15 10:04:13;;;;;;;0.40;0.40;;;;;;;7.55;100.00;101719.78;5101017;28;20058;-75
2021/04/15 10:07:47;;;;;;;1.30;0.82;;;;;;;7.72;100.00;101718.03;5111968;28;20536;-76
2021/04/15 10:11:16;;;;;;;0.68;0.68;;;;;;;7.70;100.00;101714.88;5112793;28;20524;-76
2021/04/15 10:14:49;;;;;;;2.10;1.30;;;;;;;7.88;100.00;101701.63;5112100;28;20062;-76
2021/04/15 10:18:06;;;;;;;0.60;0.60;;;;;;;7.98;100.00;101703.50;5100045;28;20071;-77
2021/04/15 10:21:39;;;;;;;0.73;0.73;;;;;;;8.16;100.00;101704.88;5100051;28;20059;-76
2021/04/15 10:24:50;;;;;;;1.55;0.52;;;;;;;8.13;100.00;101702.13;5111764;28;20070;-76
2021/04/15 10:28:02;;;;;;;0.73;0.70;;;;;;;8.18;100.00;101705.25;5112503;28;20082;-76
2021/04/15 10:31:11;;;;;;;0.75;0.65;;;;;;;8.25;100.00;101702.41;5099458;28;20078;-76
2021/04/15 10:34:18;;;;;;;0.25;0.25;;;;;;;8.27;100.00;101705.56;5111327;28;20129;-76
2021/04/15 10:37:41;;;;;;;0.40;0.40;;;;;;;8.30;100.00;101701.97;5111584;27;20074;-76
2021/04/15 10:40:51;;;;;;;0.63;0.63;;;;;;;8.33;100.00;101697.56;5112572;28;20511;-75
2021/04/15 10:44:13;;;;;;;0.20;0.20;;;;;;;8.36;100.00;101696.72;5112689;28;20074;-75
2021/04/15 10:47:44;;;;;;;2.20;1.23;;;;;;;8.67;100.00;101695.53;5111826;28;20528;-77
2021/04/15 10:50:57;;;;;;;1.50;0.35;;;;;;;8.60;100.00;101695.63;5111875;28;20062;-76
2021/04/15 10:54:20;;;;;;;1.77;0.50;;;;;;;8.58;100.00;101692.47;5112296;28;20059;-76
2021/04/15 10:57:30;;;;;;;2.75;0.80;;;;;;;8.67;100.00;101695.53;5112438;28;20062;-76
2021/04/15 11:00:34;;;;;;;0.50;0.40;;;;;;;8.70;100.00;101693.91;5091624;28;20425;-76
2021/04/15 11:03:37;;;;;;;4.22;0.90;;;;;;;8.77;100.00;101691.03;5078735;28;20067;-76
2021/04/15 11:06:44;;;;;;;0.50;0.50;;;;;;;8.88;100.00;101689.66;5091432;28;20074;-76
2021/04/15 11:09:51;;;;;;;0.85;0.85;;;;;;;9.18;100.00;101679.69;5091406;28;20063;-77
2021/04/15 11:13:23;;;;;;;2.58;0.57;;;;;;;9.20;100.00;101677.28;5091211;28;20382;-76
2021/04/15 11:16:28;;;;;;;6.13;0.57;;;;;;;9.49;100.00;101675.59;5090696;28;20421;-81
2021/04/15 11:19:32;;;;;;;0.35;0.35;;;;;;;9.38;100.00;101669.41;5091342;28;20063;-80
2021/04/15 11:22:39;;;;;;;1.42;0.45;;;;;;;9.33;100.00;101664.34;5078767;28;20059;-77
2021/04/15 11:25:48;;;;;;;2.22;1.40;;;;;;;9.43;100.00;101657.81;5090494;28;20119;-77
2021/04/15 11:28:55;;;;;;;1.75;0.50;;;;;;;9.18;100.00;101657.47;5090640;28;20063;-77
2021/04/15 11:31:59;;;;;;;0.50;0.30;;;;;;;8.88;100.00;101661.88;5090770;28;20074;-77
2021/04/15 11:35:14;;;;;;;0.17;0.17;;;;;;;8.97;100.00;101653.81;5050745;28;20067;-80
2021/04/15 11:38:24;;;;;;;1.35;0.70;;;;;;;9.31;100.00;101647.31;5049523;28;20060;-79
2021/04/15 11:41:29;;;;;;;2.70;0.40;;;;;;;9.59;100.00;101642.03;5050602;28;20068;-78
2021/04/15 11:44:43;;;;;;;1.48;0.75;;;;;;;9.80;100.00;101643.63;5050801;28;20056;-78
2021/04/15 11:47:47;;;;;;;0.40;0.30;;;;;;;9.90;100.00;101637.06;5049487;28;20100;-77
2021/04/15 11:51:09;;;;;;;2.28;0.68;;;;;;;10.04;100.00;101636.78;5050311;28;20056;-78
2021/04/15 11:54:27;;;;;;;0.55;0.28;;;;;;;10.19;100.00;101632.53;5050216;28;20056;-78
2021/04/15 11:57:38;;;;;;;0.20;0.20;;;;;;;10.24;100.00;101632.03;5049344;28;20052;-82
2021/04/15 12:00:44;;;;;;;1.15;1.10;;;;;;;10.22;100.00;101626.09;5069731;28;20414;-80
2021/04/15 12:04:02;;;;;;;0.77;0.60;;;;;;;10.18;100.00;101624.63;5070301;28;20525;-79
2021/04/15 12:07:18;;;;;;;1.50;0.47;;;;;;;10.28;100.00;101629.16;5070252;28;20063;-78
2021/04/15 12:10:25;;;;;;;0.43;0.40;;;;;;;10.22;100.00;101620.50;5069279;28;20430;-78
2021/04/15 12:13:35;;;;;;;1.58;0.43;;;;;;;9.88;100.00;101617.22;5070323;28;20059;-80
2021/04/15 12:17:09;;;;;;;0.80;0.60;;;;;;;9.50;100.00;101619.56;5069655;28;20064;-79
2021/04/15 12:20:32;;;;;;;5.78;0.95;;;;;;;9.46;100.00;101613.28;5070769;28;20418;-79
2021/04/15 12:24:03;;;;;;;1.10;0.35;;;;;;;9.92;100.00;101617.94;5068748;28;20095;-80
2021/04/15 12:27:16;;;;;;;0.93;0.47;;;;;;;10.36;100.00;101614.66;5050909;28;20059;-80
2021/04/15 12:30:22;;;;;;;2.67;0.30;;;;;;;10.58;100.00;101610.19;5068768;28;20057;-78
2021/04/15 12:34:03;;;;;;;0.60;0.38;;;;;;;10.74;100.00;101603.06;5091580;28;20051;-77
2021/04/15 12:37:18;;;;;;;0.63;0.25;;;;;;;10.83;98.24;101604.00;5111121;28;20062;-76
2021/04/15 12:40:39;;;;;;;0.55;0.55;;;;;;;10.79;94.56;101608.09;5100146;28;20059;-77
2021/04/15 12:43:48;;;;;;;;;;;;;;;10.79;93.05;101603.31;5111223;28;20074;-77
2021/04/15 12:46:55;;;;;;;1.00;0.40;;;;;;;11.01;93.49;101598.00;5084776;28;19919;-77
2021/04/15 12:50:00;;;;;;;0.30;0.30;;;;;;;11.27;90.07;101600.50;5089711;28;20066;-77
2021/04/15 12:53:06;;;;;;;1.00;0.40;;;;;;;11.25;89.21;101600.16;5089578;28;20051;-76
2021/04/15 12:56:15;;;;;;;1.85;0.95;;;;;;;11.21;90.19;101601.47;5089492;28;20055;-77
2021/04/15 12:59:40;;;;;;;0.75;0.63;;;;;;;11.27;93.17;101599.72;5102918;28;20075;-79
2021/04/15 13:02:44;;;;;;;2.53;0.80;;;;;;;11.39;91.11;101593.44;5109437;28;20062;-76
2021/04/15 13:06:02;;;;;;;0.20;0.20;;;;;;;11.47;90.00;101580.88;5109843;28;20051;-76
2021/04/15 13:09:24;;;;;;;0.70;0.70;;;;;;;11.55;85.86;101587.81;5109727;28;20067;-77
2021/04/15 13:12:30;;;;;;;;;;;;;;;11.67;85.10;101584.34;5109207;28;20054;-77
2021/04/15 13:15:34;;;;;;;0.88;0.88;;;;;;;11.78;81.53;101584.03;5109522;28;20385;-78
2021/04/15 13:18:43;;;;;;;3.63;0.60;;;;;;;11.80;75.57;101571.19;5109776;28;20060;-78
2021/04/15 13:22:05;;;;;;;0.47;0.45;;;;;;;11.81;79.33;101572.75;5109154;28;20059;-77
2021/04/15 13:25:13;;;;;;;6.47;0.80;;;;;;;11.95;81.49;101566.75;5109804;28;20066;-77
2021/04/15 13:28:18;;;;;;;1.98;0.50;;;;;;;12.04;81.22;101568.91;5108481;28;20067;-80
2021/04/15 13:32:06;;;;;;;3.67;1.13;;;;;;;11.89;75.68;101574.09;5096950;28;20075;-79
2021/04/15 13:35:19;;;;;;;2.88;0.88;;;;;;;12.14;81.81;101563.00;5109689;28;20063;-80
2021/04/15 13:38:26;;;;;;;2.40;0.20;;;;;;;12.14;77.54;101557.41;5095826;28;20059;-82
2021/04/15 13:41:29;;;;;;;2.83;0.75;;;;;;;12.14;73.26;101560.22;5109792;28;20074;-83
2021/04/15 13:45:06;;;;;;;0.47;0.35;;;;;;;11.90;69.25;101558.94;5109300;28;20054;-82
2021/04/15 13:48:43;;;;;;;1.02;0.38;;;;;;;11.38;70.49;101547.22;5109402;28;20421;-81
2021/04/15 13:51:49;;;;;;;2.35;0.38;;;;;;;10.92;74.00;101554.00;5096116;28;20158;-80
2021/04/15 13:54:53;;;;;;;1.58;0.70;;;;;;;10.59;73.98;101547.66;5096723;28;20398;-80
2021/04/15 13:57:58;;;;;;;1.27;0.32;;;;;;;10.74;71.15;101544.53;5108937;28;20055;-81
2021/04/15 14:01:22;;;;;;;0.57;0.55;;;;;;;10.92;65.95;101544.88;5109508;28;20066;-80
2021/04/15 14:04:41;;;;;;;2.20;0.52;;;;;;;11.34;69.94;101543.75;5108347;28;20519;-79
2021/04/15 14:07:45;;;;;;;0.68;0.60;;;;;;;11.85;75.38;101534.34;5108952;28;20066;-79
2021/04/15 14:10:49;;;;;;;3.40;1.00;;;;;;;12.11;69.47;101529.59;5112007;28;20059;-79
2021/04/15 14:13:55;;;;;;;0.93;0.40;;;;;;;12.25;65.50;101531.16;5112820;28;20054;-83
2021/04/15 14:16:59;;;;;;;0.10;0.10;;;;;;;12.30;65.57;101527.81;5113516;28;20055;-87
2021/04/15 14:20:16;;;;;;;0.45;0.38;;;;;;;12.42;62.75;101529.81;5101819;28;20067;-83
2021/04/15 14:23:20;;;;;;;0.20;0.20;;;;;;;12.61;62.96;101523.22;5113101;28;20528;-77
2021/04/15 14:26:26;;;;;;;0.57;0.40;;;;;;;12.34;62.85;101520.13;5113098;28;20374;-80
2021/04/15 14:29:36;;;;;;;1.05;0.22;;;;;;;12.17;61.43;101534.16;5100169;28;20420;-79
2021/04/15 14:32:40;;;;;;;0.20;0.20;;;;;;;12.11;60.32;101519.19;5112328;28;20082;-82
2021/04/15 14:35:44;;;;;;;0.40;0.40;;;;;;;12.34;63.32;101520.13;5110857;28;20062;-80
2021/04/15 14:38:47;;;;;;;0.28;0.28;;;;;;;12.49;62.48;101521.22;5084147;28;20065;-80
2021/04/15 14:41:58;;;;;;;1.48;0.73;;;;;;;12.58;62.69;101518.53;5093066;27;20055;-78
2021/04/15 14:45:05;;;;;;;0.20;0.20;;;;;;;12.62;62.68;101517.19;5092948;27;20063;-82
2021/04/15 14:48:18;;;;;;;1.00;1.00;;;;;;;12.54;60.55;101517.88;5092200;28;21387;-80
2021/04/15 14:51:27;;;;;;;0.28;0.28;;;;;;;12.17;60.21;101508.28;5102144;27;20524;-81
2021/04/15 14:54:34;;;;;;;1.17;0.45;;;;;;;11.81;59.52;101505.75;5109481;27;20055;-81
2021/04/15 14:57:38;;;;;;;3.35;0.68;;;;;;;11.58;65.46;101506.03;5092093;28;20153;-81
2021/04/15 15:00:51;;;;;;;0.17;0.17;;;;;;;11.32;70.25;101509.94;5092597;28;20055;-81
2021/04/15 15:03:57;;;;;;;1.00;0.40;;;;;;;10.91;67.60;101510.66;5092297;28;20059;-81